Time;durP1;ratioP1;P1;durP2;ratioP2;P2;SDS_P1;SDS_P2;PMS_P1;PMS_P2;Temp;Humidity;BMP_temperature;BMP_pressure;BME280_temperature;BME280_humidity;BME280_pressure;Samples;Min_cycle;Max_cycle;Signal;HPM_P1;HPM_P2
2023/05/28 00:01:55;;;;;;;1.77;0.98;;;11.20;99.90;;;;;;4993072;28;19918;-74
2023/05/28 00:04:21;;;;;;;1.85;1.00;;;11.20;99.90;;;;;;4995430;28;20129;-74
2023/05/28 00:06:48;;;;;;;1.35;0.82;;;11.20;99.90;;;;;;5011732;28;20124;-74
2023/05/28 00:09:14;;;;;;;2.97;1.08;;;11.30;99.90;;;;;;5010749;28;20072;-74
2023/05/28 00:11:40;;;;;;;3.60;1.17;;;11.30;99.90;;;;;;4988565;28;20486;-74
2023/05/28 00:14:06;;;;;;;1.27;1.00;;;11.30;99.90;;;;;;4995335;28;20080;-74
2023/05/28 00:16:35;;;;;;;1.75;0.90;;;11.30;99.90;;;;;;5010156;28;20149;-74
2023/05/28 00:19:01;;;;;;;1.90;1.08;;;11.30;99.90;;;;;;4978746;28;20041;-74
2023/05/28 00:21:27;;;;;;;1.50;1.00;;;11.30;99.90;;;;;;4991890;28;20117;-74
2023/05/28 00:23:53;;;;;;;2.00;0.90;;;11.30;99.90;;;;;;4995404;28;20441;-74
2023/05/28 00:26:18;;;;;;;3.15;1.30;;;11.30;99.90;;;;;;4961925;28;20506;-74
2023/05/28 00:28:44;;;;;;;2.08;1.17;;;11.30;99.90;;;;;;4995034;28;20042;-74
2023/05/28 00:31:11;;;;;;;1.60;1.02;;;11.30;93.10;;;;;;4991427;28;20046;-74
2023/05/28 00:33:36;;;;;;;2.45;1.20;;;11.30;99.90;;;;;;4992855;28;20042;-74
2023/05/28 00:36:02;;;;;;;5.85;2.10;;;11.40;88.50;;;;;;4977969;28;20053;-74
2023/05/28 00:38:28;;;;;;;4.93;2.40;;;11.40;35.40;;;;;;4985567;28;20061;-74
2023/05/28 00:40:56;;;;;;;5.10;2.05;;;11.40;21.50;;;;;;4993546;28;20133;-74
2023/05/28 00:43:22;;;;;;;4.40;2.35;;;11.40;20.00;;;;;;4993419;28;20042;-75
2023/05/28 00:45:50;;;;;;;6.03;2.60;;;11.50;38.40;;;;;;4994637;28;20045;-74
2023/05/28 00:48:16;;;;;;;5.53;2.20;;;11.50;1.00;;;;;;4994197;28;20052;-74
2023/05/28 00:50:42;;;;;;;;;;;11.50;93.10;;;;;;4994895;28;20057;-74
2023/05/28 00:53:10;;;;;;;5.70;2.40;;;11.50;97.00;;;;;;4980695;28;19925;-74
2023/05/28 00:55:36;;;;;;;5.47;2.30;;;11.60;99.90;;;;;;4975713;28;20114;-74
2023/05/28 00:58:05;;;;;;;3.38;1.73;;;11.60;99.90;;;;;;4972608;28;20073;-74
2023/05/28 01:00:33;;;;;;;3.55;1.75;;;11.50;99.90;;;;;;4993892;28;20117;-74
2023/05/28 01:02:59;;;;;;;3.95;1.83;;;11.50;99.90;;;;;;4961255;28;20053;-74
2023/05/28 01:05:25;;;;;;;3.10;1.65;;;11.50;99.90;;;;;;4967075;28;20464;-74
2023/05/28 01:07:51;;;;;;;6.50;2.40;;;11.50;99.90;;;;;;4979395;28;20420;-75
2023/05/28 01:10:17;;;;;;;4.22;1.88;;;11.50;99.90;;;;;;4994757;28;20041;-75
2023/05/28 01:12:43;;;;;;;3.83;2.00;;;11.50;99.90;;;;;;4985818;28;20042;-75
2023/05/28 01:15:10;;;;;;;3.63;1.83;;;11.50;99.90;;;;;;4994059;28;20089;-74
2023/05/28 01:17:38;;;;;;;2.80;1.40;;;11.40;99.90;;;;;;4979261;28;20042;-74
2023/05/28 01:20:05;;;;;;;4.32;1.73;;;11.40;99.90;;;;;;4976768;28;20509;-74
2023/05/28 01:22:38;;;;;;;4.07;1.73;;;11.40;99.90;;;;;;4983660;28;20076;-74
2023/05/28 01:25:09;;;;;;;4.40;2.00;;;11.40;99.90;;;;;;4982399;28;20088;-75
2023/05/28 01:27:41;;;;;;;3.40;1.63;;;11.30;99.90;;;;;;4989417;28;20037;-75
2023/05/28 01:30:11;;;;;;;5.43;2.38;;;11.40;99.90;;;;;;5011150;28;20115;-75
2023/05/28 01:32:38;;;;;;;5.93;2.20;;;11.30;99.90;;;;;;4989832;28;20074;-75
2023/05/28 01:35:05;;;;;;;6.90;2.70;;;11.40;99.90;;;;;;4975002;28;20046;-75
2023/05/28 01:37:33;;;;;;;5.22;2.40;;;11.30;26.40;;;;;;4979019;28;20038;-75
2023/05/28 01:40:02;;;;;;;5.80;2.85;;;11.40;99.90;;;;;;4967120;28;20053;-75
2023/05/28 01:42:33;;;;;;;8.63;3.20;;;11.40;99.90;;;;;;4992181;28;20307;-75
2023/05/28 01:45:00;;;;;;;6.28;2.22;;;11.40;28.50;;;;;;4974064;28;20057;-75
2023/05/28 01:47:26;;;;;;;5.93;2.42;;;11.40;99.90;;;;;;4985083;28;20045;-75
2023/05/28 01:49:53;;;;;;;9.43;2.78;;;11.40;99.90;;;;;;4993448;28;20486;-74
2023/05/28 01:52:18;;;;;;;7.35;3.33;;;11.30;94.50;;;;;;4987279;28;20140;-74
2023/05/28 01:54:45;;;;;;;8.25;2.83;;;11.30;90.50;;;;;;4993895;28;20522;-75
2023/05/28 01:57:11;;;;;;;;;;;11.20;99.90;;;;;;4993083;28;20143;-74
2023/05/28 01:59:37;;;;;;;6.90;2.63;;;11.20;99.90;;;;;;4975521;28;20285;-74
2023/05/28 02:02:03;;;;;;;7.40;2.58;;;11.20;99.90;;;;;;4974451;28;20133;-74
2023/05/28 02:04:29;;;;;;;;;;;11.20;99.90;;;;;;4987212;28;20049;-74
2023/05/28 02:06:55;;;;;;;4.60;2.22;;;11.20;99.90;;;;;;4991389;28;19930;-74
2023/05/28 02:09:21;;;;;;;6.40;3.00;;;11.20;99.90;;;;;;4988962;28;20085;-74
2023/05/28 02:11:47;;;;;;;4.10;2.17;;;11.10;99.90;;;;;;4998221;28;20042;-74
2023/05/28 02:14:14;;;;;;;3.88;1.88;;;11.10;99.90;;;;;;4991359;28;20125;-74
2023/05/28 02:16:47;;;;;;;5.35;1.88;;;11.10;99.90;;;;;;4993536;28;20100;-74
2023/05/28 02:19:14;;;;;;;2.83;1.30;;;11.10;99.90;;;;;;5009426;28;20504;-74
2023/05/28 02:21:40;;;;;;;2.53;1.40;;;11.10;99.90;;;;;;4993407;28;20041;-74
2023/05/28 02:24:06;;;;;;;1.80;1.13;;;11.10;99.90;;;;;;4982396;28;20089;-74
2023/05/28 02:26:32;;;;;;;3.20;1.20;;;11.10;99.90;;;;;;4974573;28;20442;-74
2023/05/28 02:28:57;;;;;;;1.98;1.13;;;11.10;99.90;;;;;;4981485;28;20038;-74
2023/05/28 02:31:23;;;;;;;2.63;1.05;;;11.10;99.90;;;;;;4974970;28;20096;-74
2023/05/28 02:33:49;;;;;;;4.10;1.30;;;11.00;99.90;;;;;;4982456;28;20061;-74
2023/05/28 02:36:15;;;;;;;5.32;2.92;;;11.10;99.90;;;;;;4993224;28;20378;-74
2023/05/28 02:38:42;;;;;;;4.93;2.22;;;11.00;99.90;;;;;;4983282;28;20156;-75
2023/05/28 02:41:08;;;;;;;4.82;2.00;;;11.00;99.90;;;;;;4992947;28;20117;-74
2023/05/28 02:43:34;;;;;;;3.72;2.00;;;11.00;99.90;;;;;;4987161;28;20069;-74
2023/05/28 02:46:00;;;;;;;2.80;1.42;;;11.00;99.90;;;;;;4972008;28;20471;-75
2023/05/28 02:48:26;;;;;;;2.70;1.40;;;11.00;99.90;;;;;;4976452;28;20050;-74
2023/05/28 02:50:52;;;;;;;4.95;1.90;;;11.00;99.90;;;;;;4990823;28;20042;-74
2023/05/28 02:53:22;;;;;;;8.88;2.80;;;11.00;99.90;;;;;;4975027;28;20046;-74
2023/05/28 02:55:48;;;;;;;4.72;2.33;;;10.90;92.00;;;;;;4992929;28;20049;-74
2023/05/28 02:58:14;;;;;;;5.25;2.15;;;10.90;99.90;;;;;;4980682;28;20042;-74
2023/05/28 03:00:40;;;;;;;;;;;10.90;99.90;;;;;;4991895;28;20394;-74
2023/05/28 03:03:06;;;;;;;5.57;2.70;;;10.90;99.90;;;;;;4958149;28;19918;-74
2023/05/28 03:05:32;;;;;;;7.28;2.75;;;10.90;99.90;;;;;;4976422;28;20065;-74
2023/05/28 03:08:01;;;;;;;7.95;3.33;;;10.90;99.90;;;;;;4977694;28;20106;-74
2023/05/28 03:10:27;;;;;;;5.80;2.92;;;10.90;33.60;;;;;;4978790;28;20128;-74
2023/05/28 03:12:53;;;;;;;7.00;2.92;;;10.90;99.90;;;;;;4992204;28;20105;-74
2023/05/28 03:15:18;;;;;;;5.00;2.33;;;10.90;99.90;;;;;;4983024;28;20108;-74
2023/05/28 03:17:44;;;;;;;3.42;1.63;;;10.90;99.90;;;;;;4976462;28;20050;-74
2023/05/28 03:20:11;;;;;;;5.13;2.10;;;10.90;99.90;;;;;;4985225;28;20172;-74
2023/05/28 03:22:38;;;;;;;5.03;2.17;;;10.90;99.90;;;;;;4991865;28;20054;-74
2023/05/28 03:25:08;;;;;;;3.78;1.88;;;10.90;99.90;;;;;;4991197;28;20147;-74
2023/05/28 03:27:34;;;;;;;6.97;2.85;;;10.90;99.90;;;;;;4986370;28;20440;-74
2023/05/28 03:29:59;;;;;;;5.90;2.40;;;10.80;99.90;;;;;;4987745;28;20050;-75
2023/05/28 03:32:25;;;;;;;4.45;2.13;;;10.90;99.90;;;;;;4992578;28;20404;-74
2023/05/28 03:34:51;;;;;;;3.33;1.80;;;10.80;99.90;;;;;;4991747;28;20044;-74
2023/05/28 03:37:16;;;;;;;4.22;2.15;;;10.80;99.90;;;;;;4988583;28;20049;-74
2023/05/28 03:39:43;;;;;;;5.47;2.47;;;10.90;99.90;;;;;;4983085;28;20517;-74
2023/05/28 03:42:09;;;;;;;5.00;1.95;;;10.90;99.90;;;;;;4992300;28;20128;-74
2023/05/28 03:44:34;;;;;;;6.53;2.22;;;10.90;99.90;;;;;;4985819;28;20541;-74
2023/05/28 03:47:00;;;;;;;2.97;1.58;;;10.90;99.90;;;;;;4973246;28;20505;-74
2023/05/28 03:49:27;;;;;;;2.72;1.63;;;10.90;99.90;;;;;;4980834;28;20442;-74
2023/05/28 03:51:52;;;;;;;3.88;1.77;;;10.90;99.90;;;;;;4995822;28;20128;-74
2023/05/28 03:54:18;;;;;;;7.85;2.83;;;10.90;99.90;;;;;;4985767;28;20133;-74
2023/05/28 03:56:44;;;;;;;4.95;2.17;;;10.90;99.90;;;;;;4981107;28;20053;-74
2023/05/28 03:59:10;;;;;;;4.60;2.35;;;10.90;99.90;;;;;;4978107;28;20046;-74
2023/05/28 04:01:36;;;;;;;6.95;3.03;;;10.90;99.90;;;;;;4987671;28;20038;-74
2023/05/28 04:04:03;;;;;;;4.47;2.30;;;10.90;99.90;;;;;;4975696;28;20057;-74
2023/05/28 04:06:31;;;;;;;5.38;2.33;;;11.00;99.90;;;;;;4985339;28;20056;-74
2023/05/28 04:08:57;;;;;;;10.88;3.40;;;11.00;99.90;;;;;;4985002;28;20060;-74
2023/05/28 04:11:24;;;;;;;8.10;3.00;;;11.00;99.90;;;;;;5004664;28;20038;-74
2023/05/28 04:13:51;;;;;;;4.85;2.25;;;11.00;97.10;;;;;;4994988;28;20054;-74
2023/05/28 04:16:16;;;;;;;3.53;2.03;;;11.00;99.90;;;;;;4989417;28;20042;-74
2023/05/28 04:18:42;;;;;;;3.60;1.92;;;11.00;99.90;;;;;;5001211;28;20456;-74
2023/05/28 04:21:08;;;;;;;3.15;1.73;;;11.00;99.90;;;;;;4994536;28;20587;-74
2023/05/28 04:23:34;;;;;;;5.90;2.63;;;11.10;99.90;;;;;;4990359;28;20030;-75
2023/05/28 04:26:00;;;;;;;6.13;2.22;;;11.10;99.90;;;;;;4991767;28;20054;-75
2023/05/28 04:28:27;;;;;;;3.13;1.65;;;11.10;99.90;;;;;;4985492;28;20046;-74
2023/05/28 04:31:00;;;;;;;3.70;1.60;;;11.10;99.90;;;;;;4989629;28;20054;-74
2023/05/28 04:33:28;;;;;;;3.13;1.48;;;11.10;99.90;;;;;;5011874;28;20501;-74
2023/05/28 04:35:54;;;;;;;3.65;1.60;;;11.20;99.90;;;;;;5012441;28;20054;-74
2023/05/28 04:38:20;;;;;;;;;;;11.20;99.90;;;;;;4995936;28;20066;-74
2023/05/28 04:40:46;;;;;;;2.55;1.60;;;11.20;99.90;;;;;;4983650;28;20076;-74
2023/05/28 04:43:11;;;;;;;3.00;1.50;;;11.20;99.90;;;;;;4976039;28;20097;-74
2023/05/28 04:45:37;;;;;;;2.90;1.55;;;11.30;99.90;;;;;;4985478;28;20137;-74
2023/05/28 04:48:04;;;;;;;2.30;1.17;;;11.30;99.90;;;;;;4995175;28;20053;-74
2023/05/28 04:50:30;;;;;;;2.00;1.20;;;11.40;99.90;;;;;;4986626;28;20355;-74
2023/05/28 04:52:56;;;;;;;;;;;11.40;99.90;;;;;;4976414;28;20802;-74
2023/05/28 04:55:23;;;;;;;5.72;2.10;;;11.40;99.90;;;;;;4976674;28;20019;-74
2023/05/28 04:57:48;;;;;;;2.33;1.50;;;11.50;99.90;;;;;;4975850;28;20050;-74
2023/05/28 05:00:14;;;;;;;2.72;1.60;;;11.50;99.90;;;;;;4991231;28;20068;-74
2023/05/28 05:02:41;;;;;;;2.58;1.23;;;11.50;99.90;;;;;;4983198;28;20557;-74
2023/05/28 05:05:07;;;;;;;4.40;2.08;;;11.50;99.90;;;;;;4994117;28;20125;-74
2023/05/28 05:07:34;;;;;;;;;;;11.60;99.90;;;;;;4989304;28;20048;-74
2023/05/28 05:10:00;;;;;;;10.52;3.83;;;11.60;99.90;;;;;;4991824;28;20445;-74
2023/05/28 05:12:26;;;;;;;7.57;3.10;;;11.60;1.00;;;;;;4994239;28;20542;-74
2023/05/28 05:14:51;;;;;;;6.65;2.63;;;11.60;91.00;;;;;;4993408;28;20045;-74
2023/05/28 05:17:17;;;;;;;7.40;2.92;;;11.60;99.90;;;;;;4975042;28;20175;-74
2023/05/28 05:19:43;;;;;;;6.28;2.63;;;11.60;99.90;;;;;;4992004;28;20512;-74
2023/05/28 05:22:08;;;;;;;4.30;2.20;;;11.70;99.90;;;;;;4969957;28;20053;-74
2023/05/28 05:24:34;;;;;;;3.97;2.10;;;11.70;99.90;;;;;;4986880;28;20045;-74
2023/05/28 05:27:01;;;;;;;6.47;2.75;;;11.80;99.90;;;;;;4988985;28;20462;-74
2023/05/28 05:29:27;;;;;;;3.70;2.22;;;11.80;94.60;;;;;;4976517;28;20065;-74
2023/05/28 05:31:52;;;;;;;5.40;2.20;;;11.90;98.60;;;;;;4978296;28;20132;-74
2023/05/28 05:34:18;;;;;;;5.72;2.38;;;12.00;99.90;;;;;;4968401;28;20050;-74
2023/05/28 05:36:44;;;;;;;5.18;2.30;;;12.00;99.90;;;;;;4981909;28;20053;-74
2023/05/28 05:39:10;;;;;;;8.20;3.08;;;12.10;92.70;;;;;;4972134;28;20066;-77
2023/05/28 05:41:36;;;;;;;7.03;3.35;;;12.30;8.90;;;;;;4985194;28;20089;-77
2023/05/28 05:44:01;;;;;;;5.47;3.00;;;12.40;32.50;;;;;;4988426;28;20110;-75
2023/05/28 05:46:27;;;;;;;8.00;3.20;;;12.60;80.80;;;;;;4963647;28;20050;-75
2023/05/28 05:48:53;;;;;;;5.50;2.78;;;12.90;17.70;;;;;;4974579;28;20125;-74
2023/05/28 05:51:18;;;;;;;7.93;3.28;;;13.30;44.00;;;;;;4988385;28;20042;-74
2023/05/28 05:53:45;;;;;;;6.43;3.10;;;13.70;60.30;;;;;;4989856;28;20096;-74
2023/05/28 05:56:10;;;;;;;4.82;2.75;;;14.10;99.90;;;;;;4988926;28;20405;-74
2023/05/28 05:58:37;;;;;;;3.25;2.20;;;14.40;99.90;;;;;;4982515;28;20039;-74
2023/05/28 06:01:03;;;;;;;2.85;1.83;;;14.70;99.90;;;;;;4968659;28;20045;-74
2023/05/28 06:03:29;;;;;;;;;;;15.00;24.00;;;;;;4990212;28;20377;-73
2023/05/28 06:05:55;;;;;;;7.10;3.00;;;15.20;1.00;;;;;;4971055;28;19930;-74
2023/05/28 06:08:21;;;;;;;10.60;3.58;;;15.40;99.90;;;;;;4982024;28;20398;-74
2023/05/28 06:10:51;;;;;;;7.47;3.50;;;15.40;52.80;;;;;;4982795;28;20048;-74
2023/05/28 06:13:17;;;;;;;8.05;3.38;;;15.20;93.30;;;;;;4979552;28;20461;-74
2023/05/28 06:15:43;;;;;;;;;;;15.10;99.90;;;;;;4982202;28;20398;-74
2023/05/28 06:18:09;;;;;;;8.35;3.58;;;15.00;99.90;;;;;;4986578;28;19921;-76
2023/05/28 06:20:38;;;;;;;;;;;14.80;1.00;;;;;;4972228;28;20118;-76
2023/05/28 06:23:04;;;;;;;5.07;2.42;;;14.80;1.00;;;;;;4972829;28;19943;-75
2023/05/28 06:25:30;;;;;;;7.35;2.92;;;14.80;90.80;;;;;;4975702;28;20049;-76
2023/05/28 06:27:56;;;;;;;8.52;3.22;;;14.90;99.90;;;;;;4988899;28;20050;-74
2023/05/28 06:30:23;;;;;;;7.80;3.40;;;14.80;64.00;;;;;;4984237;28;20048;-74
2023/05/28 06:32:48;;;;;;;6.15;2.60;;;14.80;99.90;;;;;;4969226;28;20098;-75
2023/05/28 06:35:14;;;;;;;5.60;2.83;;;14.90;99.90;;;;;;4956899;28;20462;-74
2023/05/28 06:37:40;;;;;;;6.82;3.13;;;14.90;1.00;;;;;;4966081;28;20051;-74
2023/05/28 06:40:07;;;;;;;8.73;3.95;;;14.90;1.00;;;;;;4979691;28;20507;-75
2023/05/28 06:42:32;;;;;;;7.65;3.72;;;14.80;99.90;;;;;;4984227;28;20034;-74
2023/05/28 06:44:59;;;;;;;8.38;3.30;;;14.70;99.90;;;;;;4990199;28;20474;-75
2023/05/28 06:47:25;;;;;;;9.25;3.47;;;14.70;1.00;;;;;;4988258;28;20506;-74
2023/05/28 06:49:51;;;;;;;8.48;3.70;;;14.70;99.90;;;;;;4967780;28;20133;-74
2023/05/28 06:52:18;;;;;;;6.13;3.25;;;14.70;99.90;;;;;;4980418;28;20457;-74
2023/05/28 06:54:45;;;;;;;7.47;3.10;;;14.80;99.90;;;;;;4987908;28;20495;-74
2023/05/28 06:57:10;;;;;;;;;;;14.90;99.90;;;;;;4981252;28;20042;-75
2023/05/28 06:59:36;;;;;;;8.32;3.08;;;14.90;99.90;;;;;;4975807;28;20250;-74
2023/05/28 07:02:02;;;;;;;9.57;3.85;;;14.90;99.90;;;;;;4983218;28;20073;-75
2023/05/28 07:04:28;;;;;;;5.97;3.22;;;15.10;99.90;;;;;;4985706;28;20504;-75
2023/05/28 07:06:53;;;;;;;7.30;3.10;;;15.30;19.20;;;;;;4959134;28;20034;-75
2023/05/28 07:09:19;;;;;;;5.25;2.65;;;15.40;1.00;;;;;;4984347;28;20394;-74
2023/05/28 07:11:45;;;;;;;6.22;2.85;;;15.50;1.00;;;;;;4973061;28;20120;-74
2023/05/28 07:14:11;;;;;;;6.20;2.88;;;15.50;1.00;;;;;;4989854;28;20042;-74
2023/05/28 07:16:37;;;;;;;4.82;2.70;;;15.50;1.00;;;;;;4986714;28;20158;-75
2023/05/28 07:19:02;;;;;;;7.22;3.35;;;15.60;99.90;;;;;;4972958;28;20042;-75
2023/05/28 07:21:28;;;;;;;8.85;3.30;;;15.60;99.90;;;;;;4973050;28;20054;-74
2023/05/28 07:23:54;;;;;;;7.22;3.00;;;15.60;99.90;;;;;;4954462;28;20058;-74
2023/05/28 07:26:20;;;;;;;6.72;3.33;;;15.80;99.90;;;;;;4954110;28;20110;-74
2023/05/28 07:28:45;;;;;;;6.63;2.80;;;15.80;99.90;;;;;;4987335;28;20089;-74
2023/05/28 07:31:11;;;;;;;5.65;3.05;;;15.90;8.90;;;;;;4971253;28;20130;-75
2023/05/28 07:33:37;;;;;;;6.15;2.78;;;16.10;99.90;;;;;;4971200;28;20054;-74
2023/05/28 07:36:03;;;;;;;6.10;3.08;;;16.20;85.30;;;;;;4970126;28;20168;-74
2023/05/28 07:38:28;;;;;;;4.97;2.92;;;16.20;8.70;;;;;;4973610;28;20066;-74
2023/05/28 07:40:54;;;;;;;6.82;2.88;;;16.30;1.00;;;;;;4983347;28;20105;-75
2023/05/28 07:43:20;;;;;;;6.13;2.80;;;16.40;1.00;;;;;;4971761;28;20047;-75
2023/05/28 07:45:45;;;;;;;6.68;3.20;;;16.50;1.00;;;;;;4986255;28;20050;-75
2023/05/28 07:48:11;;;;;;;6.25;2.88;;;16.60;99.90;;;;;;4991576;28;20104;-75
2023/05/28 07:50:38;;;;;;;5.35;2.88;;;16.60;99.90;;;;;;4964213;28;20146;-75
2023/05/28 07:53:04;;;;;;;6.07;2.90;;;16.70;99.90;;;;;;4991621;28;20050;-74
2023/05/28 07:55:30;;;;;;;5.97;2.42;;;16.80;99.90;;;;;;4992995;28;20051;-74
2023/05/28 07:57:58;;;;;;;;;;;17.00;99.90;;;;;;4988014;28;20508;-74
2023/05/28 08:00:27;;;;;;;5.75;2.50;;;17.20;99.90;;;;;;4978955;28;20457;-74
2023/05/28 08:02:53;;;;;;;5.35;2.58;;;17.40;99.90;;;;;;4975267;28;20074;-74
2023/05/28 08:05:18;;;;;;;5.93;2.80;;;17.70;99.90;;;;;;4982386;28;20533;-74
2023/05/28 08:07:44;;;;;;;;;;;18.00;99.90;;;;;;4971046;28;20038;-74
2023/05/28 08:10:10;;;;;;;3.22;2.28;;;18.10;95.40;;;;;;4981010;28;20388;-74
2023/05/28 08:12:36;;;;;;;;;;;18.40;96.90;;;;;;4988978;28;20050;-74
2023/05/28 08:15:03;;;;;;;2.95;2.13;;;18.50;62.30;;;;;;4977720;28;19933;-74
2023/05/28 08:17:32;;;;;;;4.75;2.50;;;18.60;99.90;;;;;;4974524;28;20189;-75
2023/05/28 08:19:58;;;;;;;3.55;2.40;;;18.60;99.90;;;;;;4979704;28;20034;-74
2023/05/28 08:22:23;;;;;;;;;;;18.70;13.60;;;;;;4977332;28;20048;-75
2023/05/28 08:24:49;;;;;;;5.35;3.42;;;18.80;92.90;;;;;;4972943;28;20346;-74
2023/05/28 08:27:15;;;;;;;5.05;3.20;;;18.60;11.70;;;;;;4956723;28;20051;-74
2023/05/28 08:29:41;;;;;;;;;;;18.60;22.30;;;;;;4971453;28;20042;-75
2023/05/28 08:32:07;;;;;;;6.93;3.22;;;18.80;88.00;;;;;;4961015;28;19918;-75
2023/05/28 08:34:35;;;;;;;5.45;3.35;;;19.10;91.50;;;;;;4972839;28;20050;-75
2023/05/28 08:37:01;;;;;;;7.32;4.00;;;19.10;65.50;;;;;;4984754;28;20043;-74
2023/05/28 08:39:27;;;;;;;4.90;3.15;;;19.00;12.70;;;;;;4965566;28;20038;-75
2023/05/28 08:41:53;;;;;;;;;;;19.10;30.00;;;;;;4995810;28;20049;-75
2023/05/28 08:44:19;;;;;;;6.75;3.42;;;19.10;1.00;;;;;;4994857;28;20063;-75
2023/05/28 08:46:45;;;;;;;5.82;3.30;;;19.00;1.00;;;;;;4972606;28;20394;-75
2023/05/28 08:49:11;;;;;;;;;;;19.10;45.20;;;;;;4985906;28;20046;-75
2023/05/28 08:51:39;;;;;;;7.43;3.73;;;19.10;1.00;;;;;;4995240;28;19917;-75
2023/05/28 08:54:05;;;;;;;6.30;3.47;;;19.00;1.00;;;;;;5009833;28;20425;-75
2023/05/28 08:56:31;;;;;;;5.43;3.35;;;19.10;9.50;;;;;;4993296;28;20053;-75
2023/05/28 08:58:57;;;;;;;;;;;19.00;21.80;;;;;;4986900;28;20035;-75
2023/05/28 09:01:23;;;;;;;5.88;3.40;;;19.00;1.00;;;;;;4975581;28;20012;-75
2023/05/28 09:03:49;;;;;;;;;;;19.10;1.00;;;;;;4979509;28;20056;-75
2023/05/28 09:06:15;;;;;;;6.38;4.05;;;19.10;1.00;;;;;;4976445;28;20400;-75
2023/05/28 09:08:44;;;;;;;7.05;4.45;;;19.20;3.40;;;;;;4980084;28;20053;-75
2023/05/28 09:11:14;;;;;;;7.18;3.72;;;19.30;6.00;;;;;;4987504;28;20104;-75
2023/05/28 09:13:47;;;;;;;7.20;4.22;;;19.40;1.20;;;;;;4978989;28;20038;-76
2023/05/28 09:16:21;;;;;;;6.03;3.70;;;19.40;1.00;;;;;;5009443;28;21897;-75
2023/05/28 09:18:51;;;;;;;5.28;3.78;;;19.70;1.00;;;;;;4974014;28;20034;-75
2023/05/28 09:21:20;;;;;;;7.93;4.07;;;19.70;1.00;;;;;;4975064;28;20486;-75
2023/05/28 09:23:51;;;;;;;5.97;4.22;;;19.70;1.00;;;;;;4979044;28;20504;-76
2023/05/28 09:26:19;;;;;;;5.60;3.72;;;19.60;1.00;;;;;;4978244;28;20375;-75
2023/05/28 09:28:45;;;;;;;6.47;3.90;;;19.90;1.00;;;;;;4977752;28;20049;-75
2023/05/28 09:31:12;;;;;;;5.78;3.83;;;20.10;1.00;;;;;;4975013;28;20324;-75
2023/05/28 09:33:47;;;;;;;8.38;4.82;;;20.30;1.00;;;;;;4976442;28;20085;-75
2023/05/28 09:36:17;;;;;;;6.55;4.40;;;20.30;1.00;;;;;;4994295;28;20100;-75
2023/05/28 09:38:43;;;;;;;7.72;4.70;;;20.20;1.00;;;;;;4990637;28;20072;-75
2023/05/28 09:41:23;;;;;;;7.18;4.50;;;20.30;1.00;;;;;;4993207;28;20061;-75
2023/05/28 09:44:02;;;;;;;6.15;4.20;;;20.30;1.00;;;;;;4993865;28;20045;-75
2023/05/28 09:46:33;;;;;;;5.95;3.97;;;20.20;1.00;;;;;;5011839;28;20045;-75
2023/05/28 09:48:59;;;;;;;8.00;5.10;;;20.10;1.00;;;;;;5008878;28;20129;-76
2023/05/28 09:51:28;;;;;;;8.35;5.00;;;20.10;1.00;;;;;;4994166;28;20054;-75
2023/05/28 09:54:00;;;;;;;7.70;4.85;;;20.10;1.00;;;;;;5001177;28;20042;-75
2023/05/28 09:56:34;;;;;;;7.20;5.05;;;20.40;1.00;;;;;;4993042;28;20088;-75
2023/05/28 09:59:04;;;;;;;7.32;5.00;;;20.30;1.00;;;;;;4979043;28;20045;-75
2023/05/28 10:01:37;;;;;;;7.38;5.18;;;20.50;1.00;;;;;;4982276;28;20046;-75
2023/05/28 10:04:13;;;;;;;7.18;5.32;;;20.60;1.00;;;;;;4986582;28;20053;-75
2023/05/28 10:06:42;;;;;;;6.55;4.50;;;20.70;1.00;;;;;;4973879;28;20046;-75
2023/05/28 10:09:14;;;;;;;5.65;4.78;;;21.10;1.00;;;;;;4974349;28;20057;-75
2023/05/28 10:11:47;;;;;;;6.57;4.70;;;21.30;1.00;;;;;;4991862;28;20050;-75
2023/05/28 10:14:13;;;;;;;7.00;4.50;;;21.50;99.90;;;;;;4991432;28;20375;-75
2023/05/28 10:16:39;;;;;;;7.10;4.95;;;21.50;99.90;;;;;;4990285;28;20107;-75
2023/05/28 10:19:05;;;;;;;6.88;4.45;;;21.60;99.90;;;;;;4989191;28;20096;-75
2023/05/28 10:21:31;;;;;;;6.35;4.10;;;21.60;99.90;;;;;;4993622;28;20042;-76
2023/05/28 10:23:57;;;;;;;6.90;4.38;;;21.20;99.90;;;;;;4992143;28;20132;-75
2023/05/28 10:26:23;;;;;;;;;;;21.30;99.90;;;;;;4993814;28;20069;-75
2023/05/28 10:28:56;;;;;;;6.28;3.90;;;21.20;99.90;;;;;;4991704;28;19925;-75
2023/05/28 10:31:23;;;;;;;5.72;4.07;;;21.20;99.90;;;;;;4993219;28;20556;-75
2023/05/28 10:33:48;;;;;;;6.68;4.10;;;21.30;99.90;;;;;;4992941;28;20470;-76
2023/05/28 10:36:16;;;;;;;6.00;3.65;;;21.70;99.90;;;;;;4992044;28;20081;-75
2023/05/28 10:38:51;;;;;;;4.43;3.20;;;21.80;99.90;;;;;;4989482;28;20466;-75
2023/05/28 10:41:24;;;;;;;6.30;2.70;;;22.30;99.90;;;;;;4987991;28;20046;-75
2023/05/28 10:43:51;;;;;;;5.07;2.85;;;22.40;99.90;;;;;;4987939;28;20050;-75
2023/05/28 10:46:25;;;;;;;3.72;2.15;;;22.30;99.90;;;;;;4970975;28;20050;-75
2023/05/28 10:49:15;;;;;;;5.97;2.35;;;22.20;99.90;;;;;;4970791;28;20047;-75
2023/05/28 10:52:00;;;;;;;5.60;2.25;;;22.10;99.90;;;;;;4970296;28;20122;-75
2023/05/28 10:54:29;;;;;;;3.60;2.17;;;22.00;99.90;;;;;;4975634;28;20058;-75
2023/05/28 10:57:18;;;;;;;3.60;2.03;;;21.90;99.90;;;;;;4986575;28;20482;-75
2023/05/28 10:59:59;;;;;;;5.88;2.15;;;22.00;99.90;;;;;;4971405;28;20031;-75
2023/05/28 11:02:33;;;;;;;4.93;2.35;;;22.20;99.90;;;;;;4989754;28;20043;-75
2023/05/28 11:05:01;;;;;;;5.18;2.42;;;22.20;99.90;;;;;;4982694;28;20442;-75
2023/05/28 11:07:31;;;;;;;5.63;2.15;;;22.30;99.90;;;;;;4971578;28;20087;-75
2023/05/28 11:09:58;;;;;;;4.18;2.38;;;22.30;99.90;;;;;;4974734;28;20038;-76
2023/05/28 11:12:28;;;;;;;3.58;1.98;;;22.00;99.90;;;;;;4989595;28;20370;-75
2023/05/28 11:14:54;;;;;;;4.63;2.25;;;22.00;99.90;;;;;;4984334;28;20059;-74
2023/05/28 11:17:20;;;;;;;5.45;2.47;;;22.20;99.90;;;;;;4989876;28;20038;-75
2023/05/28 11:19:47;;;;;;;5.18;2.28;;;22.40;99.90;;;;;;4992798;28;20053;-74
2023/05/28 11:22:14;;;;;;;4.97;2.20;;;22.30;99.90;;;;;;4958252;28;20497;-75
2023/05/28 11:25:06;;;;;;;6.63;2.70;;;22.20;99.90;;;;;;4979824;28;20049;-74
2023/05/28 11:27:35;;;;;;;4.28;2.40;;;22.20;99.90;;;;;;4987690;28;20433;-74
2023/05/28 11:30:03;;;;;;;7.43;2.30;;;22.30;99.90;;;;;;4992128;28;20050;-75
2023/05/28 11:32:32;;;;;;;5.88;2.03;;;22.30;99.90;;;;;;4958218;28;20043;-74
2023/05/28 11:34:58;;;;;;;5.88;2.55;;;22.50;1.00;;;;;;4969186;28;20129;-74
2023/05/28 11:37:29;;;;;;;8.35;2.92;;;22.70;99.90;;;;;;4976970;28;20110;-74
2023/05/28 11:39:56;;;;;;;5.00;2.47;;;22.60;1.00;;;;;;5005486;28;20519;-77
2023/05/28 11:42:24;;;;;;;4.15;2.20;;;22.40;1.00;;;;;;4995896;28;20378;-76
2023/05/28 11:44:53;;;;;;;5.13;2.63;;;22.20;1.00;;;;;;4985597;28;20605;-75
2023/05/28 11:47:20;;;;;;;5.47;2.40;;;22.10;1.00;;;;;;4994481;28;20054;-75
2023/05/28 11:49:46;;;;;;;5.68;2.47;;;22.10;1.00;;;;;;4980229;28;20045;-76
2023/05/28 11:52:19;;;;;;;4.72;2.35;;;22.30;1.00;;;;;;4979597;28;20050;-76
2023/05/28 11:54:47;;;;;;;4.78;2.38;;;22.30;1.00;;;;;;4999130;28;20125;-76
2023/05/28 11:57:27;;;;;;;5.80;2.60;;;22.30;1.00;;;;;;4992561;28;20176;-75
2023/05/28 12:00:15;;;;;;;4.43;2.22;;;22.20;1.00;;;;;;4995818;28;20049;-76
2023/05/28 12:02:48;;;;;;;5.75;2.70;;;22.20;1.00;;;;;;4977203;28;20078;-77
2023/05/28 12:05:15;;;;;;;6.43;2.85;;;21.80;1.00;;;;;;4991673;28;20046;-76
2023/05/28 12:07:49;;;;;;;6.32;2.72;;;21.60;1.00;;;;;;4995650;28;20057;-75
2023/05/28 12:10:18;;;;;;;7.85;2.92;;;21.70;1.00;;;;;;4996093;28;20058;-75
2023/05/28 12:12:52;;;;;;;6.53;2.33;;;21.70;1.00;;;;;;4977297;28;20068;-76
2023/05/28 12:15:22;;;;;;;8.00;2.72;;;21.90;1.00;;;;;;4993655;28;20038;-76
2023/05/28 12:17:52;;;;;;;6.30;2.50;;;21.70;1.00;;;;;;4982466;28;20545;-76
2023/05/28 12:20:18;;;;;;;5.72;2.35;;;21.80;1.00;;;;;;4976775;28;20085;-76
2023/05/28 12:22:44;;;;;;;6.28;2.30;;;21.90;1.00;;;;;;4993005;28;20073;-76
2023/05/28 12:25:11;;;;;;;5.45;2.20;;;21.80;1.00;;;;;;4981820;28;20109;-76
2023/05/28 12:27:37;;;;;;;4.82;1.85;;;21.80;1.00;;;;;;4980254;28;20057;-76
2023/05/28 12:30:04;;;;;;;5.20;2.20;;;21.90;1.00;;;;;;4975511;28;20042;-76
2023/05/28 12:32:29;;;;;;;5.20;2.35;;;22.10;2.30;;;;;;4989392;28;20057;-76
2023/05/28 12:34:58;;;;;;;7.15;2.80;;;22.10;1.00;;;;;;4981628;28;20061;-76
2023/05/28 12:37:24;;;;;;;4.53;2.05;;;21.70;1.00;;;;;;4983813;28;20482;-75
2023/05/28 12:39:51;;;;;;;5.65;2.42;;;22.10;95.60;;;;;;4999974;28;20557;-76
2023/05/28 12:42:17;;;;;;;6.10;2.30;;;21.80;28.00;;;;;;4994867;28;20470;-76
2023/05/28 12:44:43;;;;;;;4.47;2.05;;;21.50;7.80;;;;;;4966904;28;20038;-76
2023/05/28 12:47:09;;;;;;;5.38;2.00;;;21.50;51.40;;;;;;4978878;28;20050;-76
2023/05/28 12:49:35;;;;;;;5.60;2.25;;;21.50;25.60;;;;;;4995844;28;20330;-76
2023/05/28 12:52:01;;;;;;;6.85;2.17;;;21.30;1.00;;;;;;4988596;28;20423;-76
2023/05/28 12:54:26;;;;;;;;;;;21.30;42.10;;;;;;4985719;28;20042;-76
2023/05/28 12:56:52;;;;;;;5.65;2.55;;;21.10;1.00;;;;;;4980485;28;19971;-76